createdAt,value
2018-09-20T00:02:02.900Z,99707.63
2018-09-20T00:04:30.465Z,99704.56
2018-09-20T00:06:57.985Z,99700.98
2018-09-20T00:09:25.546Z,99698.89
2018-09-20T00:11:53.083Z,99698.36
2018-09-20T00:14:20.618Z,99691.68
2018-09-20T00:16:48.237Z,99693.85
2018-09-20T00:19:15.884Z,99691.59
2018-09-20T00:21:43.423Z,99691.36
2018-09-20T00:24:11.004Z,99687.44
2018-09-20T00:26:38.520Z,99684.73
2018-09-20T00:29:06.123Z,99678.52
2018-09-20T00:31:33.643Z,99679.50
2018-09-20T00:34:01.185Z,99676.73
2018-09-20T00:36:28.794Z,99675.09
2018-09-20T00:38:56.361Z,99671.59
2018-09-20T00:41:23.989Z,99672.30
2018-09-20T00:43:51.522Z,99667.86
2018-09-20T00:46:19.079Z,99667.64
2018-09-20T00:48:46.800Z,99666.09
2018-09-20T00:51:14.341Z,99672.98
2018-09-20T00:53:41.847Z,99665.66
2018-09-20T00:56:09.517Z,99665.55
2018-09-20T00:58:37.039Z,99664.25
2018-09-20T01:01:04.637Z,99661.53
2018-09-20T01:03:32.193Z,99662.13
2018-09-20T01:05:59.743Z,99660.42
2018-09-20T01:08:27.283Z,99662.90
2018-09-20T01:10:54.877Z,99667.94
2018-09-20T01:13:22.433Z,99668.45
2018-09-20T01:15:49.942Z,99673.98
2018-09-20T01:18:17.512Z,99667.22
2018-09-20T01:20:45.069Z,99668.80
2018-09-20T01:23:12.781Z,99667.05
2018-09-20T01:25:40.354Z,99666.09
2018-09-20T01:28:07.894Z,99663.92
2018-09-20T01:30:35.419Z,99667.59
2018-09-20T01:33:02.978Z,99668.40
2018-09-20T01:35:30.553Z,99664.78
2018-09-20T01:37:58.100Z,99667.00
2018-09-20T01:40:30.010Z,99671.28
2018-09-20T01:42:57.585Z,99674.36
2018-09-20T01:45:25.120Z,99676.86
2018-09-20T01:47:56.295Z,99676.13
2018-09-20T01:50:23.803Z,99673.67
2018-09-20T01:52:51.344Z,99672.59
2018-09-20T01:55:18.901Z,99674.28
2018-09-20T01:57:46.423Z,99674.47
2018-09-20T02:00:14.031Z,99684.28
2018-09-20T02:02:41.601Z,99678.67
2018-09-20T02:05:09.129Z,99677.25
2018-09-20T02:07:36.731Z,99682.78
2018-09-20T02:10:04.313Z,99679.94
2018-09-20T02:12:31.876Z,99674.24
2018-09-20T02:14:59.411Z,99675.49
2018-09-20T02:17:27.008Z,99676.56
2018-09-20T02:19:54.525Z,99684.00
2018-09-20T02:22:22.252Z,99678.58
2018-09-20T02:24:49.780Z,99680.08
2018-09-20T02:27:17.472Z,99680.97
2018-09-20T02:29:45.007Z,99680.08
2018-09-20T02:32:12.547Z,99671.41
2018-09-20T02:34:40.133Z,99675.99
2018-09-20T02:37:07.724Z,99674.38
2018-09-20T02:39:35.249Z,99676.39
2018-09-20T02:42:02.834Z,99681.04
2018-09-20T02:44:30.393Z,99681.59
2018-09-20T02:46:57.967Z,99686.38
2018-09-20T02:49:25.572Z,99684.02
2018-09-20T02:51:53.102Z,99682.28
2018-09-20T02:54:20.627Z,99681.42
2018-09-20T02:56:48.202Z,99667.44
2018-09-20T02:59:15.784Z,99673.00
2018-09-20T03:01:43.295Z,99670.47
2018-09-20T03:04:10.858Z,99670.11
2018-09-20T03:06:38.416Z,99676.75
2018-09-20T03:09:06.133Z,99670.20
2018-09-20T03:11:33.647Z,99672.70
2018-09-20T03:14:02.298Z,99662.27
2018-09-20T03:16:29.835Z,99662.60
2018-09-20T03:18:57.409Z,99666.00
2018-09-20T03:21:24.962Z,99665.73
2018-09-20T03:23:52.552Z,99665.30
2018-09-20T03:26:20.183Z,99667.70
2018-09-20T03:28:47.753Z,99666.26
2018-09-20T03:31:15.321Z,99668.03
2018-09-20T03:33:42.884Z,99668.72
2018-09-20T03:36:10.411Z,99662.60
2018-09-20T03:38:37.998Z,99670.80
2018-09-20T03:41:05.581Z,99667.80
2018-09-20T03:43:33.109Z,99668.09
2018-09-20T03:46:00.671Z,99671.34
2018-09-20T03:48:28.180Z,99671.27
2018-09-20T03:50:55.748Z,99674.50
2018-09-20T03:53:23.258Z,99675.70
2018-09-20T03:55:50.795Z,99672.52
2018-09-20T03:58:18.354Z,99674.42
2018-09-20T04:00:46.112Z,99666.32
2018-09-20T04:03:13.677Z,99667.97
2018-09-20T04:05:41.209Z,99665.97
2018-09-20T04:08:08.782Z,99665.03
2018-09-20T04:10:36.696Z,99666.40
2018-09-20T04:13:04.235Z,99660.58
2018-09-20T04:15:31.791Z,99663.87
2018-09-20T04:17:59.359Z,99660.58
2018-09-20T04:20:26.924Z,99670.67
2018-09-20T04:22:54.491Z,99657.73
2018-09-20T04:25:22.061Z,99659.02
2018-09-20T04:27:49.599Z,99661.39
2018-09-20T04:30:17.223Z,99659.86
2018-09-20T04:32:44.765Z,99659.53
2018-09-20T04:35:12.280Z,99660.02
2018-09-20T04:37:39.832Z,99660.16
2018-09-20T04:40:07.356Z,99657.16
2018-09-20T04:42:34.939Z,99662.38
2018-09-20T04:45:02.490Z,99663.97
2018-09-20T04:47:30.121Z,99663.70
2018-09-20T04:49:57.816Z,99667.39
2018-09-20T04:52:25.347Z,99666.37
2018-09-20T04:54:53.038Z,99673.61
2018-09-20T04:57:24.714Z,99678.94
2018-09-20T04:59:52.348Z,99672.87
2018-09-20T05:02:19.928Z,99674.33
2018-09-20T05:04:47.494Z,99677.97
2018-09-20T05:07:15.127Z,99680.54
2018-09-20T05:09:42.695Z,99672.08
2018-09-20T05:12:10.214Z,99667.77
2018-09-20T05:14:37.807Z,99672.36
2018-09-20T05:17:05.351Z,99665.41
2018-09-20T05:19:32.953Z,99669.62
2018-09-20T05:22:00.559Z,99664.41
2018-09-20T05:24:28.086Z,99672.52
2018-09-20T05:26:55.760Z,99665.57
2018-09-20T05:29:23.304Z,99665.63
2018-09-20T05:31:50.878Z,99661.17
2018-09-20T05:34:22.292Z,99659.73
2018-09-20T05:36:49.860Z,99662.88
2018-09-20T05:39:17.442Z,99661.86
2018-09-20T05:41:45.050Z,99659.77
2018-09-20T05:44:12.603Z,99653.61
2018-09-20T05:46:40.154Z,99658.09
2018-09-20T05:49:07.890Z,99664.20
2018-09-20T05:51:35.425Z,99665.86
2018-09-20T05:54:02.980Z,99662.73
2018-09-20T05:56:30.515Z,99663.14
2018-09-20T05:58:58.081Z,99665.77
2018-09-20T06:01:25.664Z,99660.80
2018-09-20T06:03:53.219Z,99660.34
2018-09-20T06:06:20.756Z,99667.18
2018-09-20T06:08:48.333Z,99662.84
2018-09-20T06:11:15.881Z,99672.38
2018-09-20T06:13:43.479Z,99664.55
2018-09-20T06:16:11.016Z,99667.72
2018-09-20T06:18:38.536Z,99665.07
2018-09-20T06:21:06.099Z,99667.09
2018-09-20T06:23:33.637Z,99663.36
2018-09-20T06:26:01.235Z,99668.05
2018-09-20T06:28:28.822Z,99668.70
2018-09-20T06:30:56.371Z,99667.03
2018-09-20T06:33:23.898Z,99670.80
2018-09-20T06:35:51.447Z,99673.21
2018-09-20T06:38:19.240Z,99673.64
2018-09-20T06:40:46.769Z,99678.41
2018-09-20T06:43:14.281Z,99685.48
2018-09-20T06:45:41.855Z,99692.70
2018-09-20T06:48:09.373Z,99683.28
2018-09-20T06:50:37.117Z,99676.65
2018-09-20T06:53:04.638Z,99675.27
2018-09-20T06:55:32.221Z,99670.41
2018-09-20T06:57:59.727Z,99665.73
2018-09-20T07:00:27.269Z,99667.44
2018-09-20T07:02:54.933Z,99659.28
2018-09-20T07:05:22.428Z,99661.02
2018-09-20T07:07:50.012Z,99654.59
2018-09-20T07:10:17.555Z,99653.98
2018-09-20T07:15:18.823Z,99650.17
2018-09-20T07:17:46.393Z,99648.09
2018-09-20T07:20:13.968Z,99650.63
2018-09-20T07:22:41.548Z,99655.40
2018-09-20T07:25:09.084Z,99646.48
2018-09-20T07:27:36.675Z,99652.93
2018-09-20T07:30:04.198Z,99653.16
2018-09-20T07:32:31.773Z,99645.94
2018-09-20T07:34:59.301Z,99649.50
2018-09-20T07:37:26.880Z,99653.39
2018-09-20T07:39:54.411Z,99654.48
2018-09-20T07:42:22.019Z,99658.84
2018-09-20T07:44:49.771Z,99656.55
2018-09-20T07:47:17.338Z,99659.91
2018-09-20T07:49:44.860Z,99657.91
2018-09-20T07:54:46.150Z,99658.56
2018-09-20T07:57:13.710Z,99658.25
2018-09-20T07:59:41.276Z,99654.99
2018-09-20T08:02:08.863Z,99652.16
2018-09-20T08:04:36.380Z,99658.81
2018-09-20T08:07:03.979Z,99665.86
2018-09-20T08:09:31.519Z,99674.98
2018-09-20T08:11:59.089Z,99668.51
2018-09-20T08:14:26.657Z,99669.12
2018-09-20T08:16:54.177Z,99667.64
2018-09-20T08:19:21.740Z,99672.67
2018-09-20T08:21:49.304Z,99670.30
2018-09-20T08:24:16.883Z,99667.97
2018-09-20T08:26:44.394Z,99664.77
2018-09-20T08:29:11.974Z,99668.39
2018-09-20T08:31:39.540Z,99674.88
2018-09-20T08:34:07.127Z,99668.06
2018-09-20T08:36:35.480Z,99658.87
2018-09-20T08:39:03.060Z,99670.33
2018-09-20T08:41:30.644Z,99664.53
2018-09-20T08:43:58.327Z,99654.72
2018-09-20T08:46:25.903Z,99664.15
2018-09-20T08:48:53.419Z,99674.52
2018-09-20T08:51:20.990Z,99670.97
2018-09-20T08:53:48.552Z,99673.73
2018-09-20T08:56:16.277Z,99668.39
2018-09-20T08:58:44.020Z,99668.47
2018-09-20T09:01:11.570Z,99670.02
2018-09-20T09:03:39.261Z,99672.20
2018-09-20T09:06:06.790Z,99672.52
2018-09-20T09:08:34.313Z,99666.77
2018-09-20T09:11:01.908Z,99665.41
2018-09-20T09:13:29.679Z,99662.42
2018-09-20T09:15:57.248Z,99665.67
2018-09-20T09:18:24.816Z,99670.34
2018-09-20T09:20:52.356Z,99663.40
2018-09-20T09:23:19.899Z,99664.93
2018-09-20T09:25:47.470Z,99661.72
2018-09-20T09:28:15.052Z,99658.91
2018-09-20T09:30:42.636Z,99659.26
2018-09-20T09:33:10.151Z,99646.76
2018-09-20T09:35:37.690Z,99649.07
2018-09-20T09:38:05.230Z,99640.33
2018-09-20T09:40:33.676Z,99639.99
2018-09-20T09:43:01.184Z,99623.94
2018-09-20T09:45:28.761Z,99629.27
2018-09-20T09:47:56.281Z,99631.92
2018-09-20T09:50:23.817Z,99627.55
2018-09-20T09:52:51.513Z,99623.72
2018-09-20T09:55:19.112Z,99623.00
2018-09-20T09:57:46.646Z,99641.20
2018-09-20T10:00:14.199Z,99618.17
2018-09-20T10:02:41.762Z,99619.58
2018-09-20T10:05:09.327Z,99628.16
2018-09-20T10:07:36.872Z,99627.52
2018-09-20T10:10:04.638Z,99627.20
2018-09-20T10:12:32.196Z,99613.13
2018-09-20T10:14:59.807Z,99601.52
2018-09-20T10:17:27.323Z,99602.39
2018-09-20T10:19:54.904Z,99612.42
2018-09-20T10:22:22.444Z,99603.88
2018-09-20T10:24:50.006Z,99609.44
2018-09-20T10:27:17.753Z,99609.55
2018-09-20T10:29:45.303Z,99609.59
2018-09-20T10:32:12.872Z,99599.72
2018-09-20T10:34:40.392Z,99595.98
2018-09-20T10:37:07.963Z,99598.94
2018-09-20T10:39:35.489Z,99615.23
2018-09-20T10:42:03.019Z,99605.20
2018-09-20T10:44:30.602Z,99601.03
2018-09-20T10:46:58.341Z,99592.45
2018-09-20T10:49:25.927Z,99589.58
2018-09-20T10:51:53.486Z,99584.01
2018-09-20T10:54:21.009Z,99573.64
2018-09-20T10:56:48.579Z,99565.36
2018-09-20T10:59:16.156Z,99573.06
2018-09-20T11:01:43.747Z,99573.88
2018-09-20T11:04:11.256Z,99573.00
2018-09-20T11:06:38.827Z,99573.70
2018-09-20T11:09:06.381Z,99570.81
2018-09-20T11:11:33.958Z,99566.05
2018-09-20T11:14:01.518Z,99564.38
2018-09-20T11:16:29.098Z,99575.59
2018-09-20T11:18:56.617Z,99566.25
2018-09-20T11:21:24.332Z,99556.84
2018-09-20T11:23:51.842Z,99552.74
2018-09-20T11:26:19.429Z,99553.99
2018-09-20T11:28:47.015Z,99541.16
2018-09-20T11:31:14.551Z,99542.94
2018-09-20T11:33:42.123Z,99552.66
2018-09-20T11:36:09.677Z,99546.92
2018-09-20T11:38:37.230Z,99552.88
2018-09-20T11:41:04.941Z,99554.33
2018-09-20T11:43:32.453Z,99546.29
2018-09-20T11:46:00.040Z,99549.22
2018-09-20T11:48:27.579Z,99558.81
2018-09-20T11:50:55.163Z,99549.11
2018-09-20T11:53:22.748Z,99545.03
2018-09-20T11:55:50.273Z,99542.09
2018-09-20T11:58:17.845Z,99539.58
2018-09-20T12:00:45.432Z,99545.13
2018-09-20T12:03:13.013Z,99539.94
2018-09-20T12:05:40.533Z,99531.95
2018-09-20T12:08:08.175Z,99542.74
2018-09-20T12:10:35.728Z,99545.45
2018-09-20T12:13:03.308Z,99536.88
2018-09-20T12:15:30.864Z,99533.14
2018-09-20T12:17:58.463Z,99532.40
2018-09-20T12:20:25.993Z,99533.94
2018-09-20T12:22:53.578Z,99526.73
2018-09-20T12:25:21.113Z,99529.72
2018-09-20T12:27:48.799Z,99521.91
2018-09-20T12:30:16.385Z,99516.95
2018-09-20T12:32:44.020Z,99512.41
2018-09-20T12:35:11.598Z,99503.77
2018-09-20T12:37:39.168Z,99502.58
2018-09-20T12:40:06.768Z,99500.05
2018-09-20T12:42:34.349Z,99488.63
2018-09-20T12:45:01.892Z,99486.78
2018-09-20T12:47:29.453Z,99488.34
2018-09-20T12:49:57.075Z,99481.50
2018-09-20T12:52:24.656Z,99482.30
2018-09-20T12:54:52.171Z,99473.85
2018-09-20T12:57:19.701Z,99473.09
2018-09-20T12:59:47.305Z,99470.71
2018-09-20T13:02:14.880Z,99461.48
2018-09-20T13:04:42.351Z,99452.61
2018-09-20T13:07:09.995Z,99459.23
2018-09-20T13:09:37.583Z,99457.03
2018-09-20T13:12:05.105Z,99449.41
2018-09-20T13:14:33.351Z,99443.95
2018-09-20T13:17:00.909Z,99441.22
2018-09-20T13:19:28.446Z,99449.61
2018-09-20T13:21:56.005Z,99435.86
2018-09-20T13:24:23.567Z,99439.25
2018-09-20T13:26:51.134Z,99443.23
2018-09-20T13:29:18.654Z,99433.30
2018-09-20T13:31:46.235Z,99441.42
2018-09-20T13:34:13.824Z,99445.09
2018-09-20T13:36:41.360Z,99446.59
2018-09-20T13:39:08.949Z,99442.63
2018-09-20T13:41:36.480Z,99436.23
2018-09-20T13:44:04.081Z,99437.34
2018-09-20T13:46:31.815Z,99433.47
2018-09-20T13:48:59.332Z,99424.41
2018-09-20T13:51:26.934Z,99415.05
2018-09-20T13:53:54.438Z,99419.36
2018-09-20T13:56:22.013Z,99424.30
2018-09-20T13:58:49.542Z,99418.33
2018-09-20T14:01:17.123Z,99424.20
2018-09-20T14:03:44.771Z,99409.43
2018-09-20T14:06:12.363Z,99407.55
2018-09-20T14:08:40.168Z,99410.45
2018-09-20T14:11:07.670Z,99401.81
2018-09-20T14:13:35.247Z,99399.61
2018-09-20T14:16:02.772Z,99394.39
2018-09-20T14:18:30.340Z,99389.00
2018-09-20T14:21:01.517Z,99383.55
2018-09-20T14:23:29.050Z,99383.70
2018-09-20T14:25:56.685Z,99388.78
2018-09-20T14:28:24.250Z,99384.23
2018-09-20T14:30:51.808Z,99386.01
2018-09-20T14:33:19.362Z,99372.83
2018-09-20T14:35:46.904Z,99369.67
2018-09-20T14:38:14.463Z,99363.91
2018-09-20T14:40:41.987Z,99360.87
2018-09-20T14:43:09.553Z,99358.08
2018-09-20T14:45:37.267Z,99355.77
2018-09-20T14:48:04.790Z,99353.17
2018-09-20T14:50:33.361Z,99343.55
2018-09-20T14:53:00.899Z,99338.43
2018-09-20T14:55:28.455Z,99343.00
2018-09-20T14:57:56.020Z,99340.78
2018-09-20T15:00:23.532Z,99329.44
2018-09-20T15:02:51.100Z,99333.34
2018-09-20T15:05:18.741Z,99330.21
2018-09-20T15:07:46.299Z,99326.40
2018-09-20T15:10:13.855Z,99319.73
2018-09-20T15:12:41.425Z,99317.34
2018-09-20T15:15:09.020Z,99316.31
2018-09-20T15:17:36.485Z,99310.59
2018-09-20T15:20:04.041Z,99310.48
2018-09-20T15:22:31.557Z,99313.06
2018-09-20T15:24:59.121Z,99305.13
2018-09-20T15:27:26.706Z,99295.58
2018-09-20T15:29:54.255Z,99297.75
2018-09-20T15:32:21.819Z,99292.89
2018-09-20T15:34:49.492Z,99294.16
2018-09-20T15:37:17.054Z,99288.64
2018-09-20T15:39:44.646Z,99287.83
2018-09-20T15:42:12.187Z,99287.66
2018-09-20T15:44:39.743Z,99284.16
2018-09-20T15:47:07.288Z,99276.31
2018-09-20T15:49:34.861Z,99274.58
2018-09-20T15:52:02.440Z,99277.98
2018-09-20T15:54:30.022Z,99275.61
2018-09-20T15:56:57.635Z,99267.45
2018-09-20T15:59:25.213Z,99267.19
2018-09-20T16:01:52.789Z,99259.56
2018-09-20T16:04:20.375Z,99266.38
2018-09-20T16:06:47.916Z,99264.59
2018-09-20T16:09:15.450Z,99253.97
2018-09-20T16:11:43.031Z,99260.49
2018-09-20T16:14:10.793Z,99257.47
2018-09-20T16:16:38.626Z,99253.31
2018-09-20T16:19:06.628Z,99250.26
2018-09-20T16:21:34.583Z,99251.69
2018-09-20T16:24:02.227Z,99244.75
2018-09-20T16:26:29.948Z,99236.05
2018-09-20T16:29:01.148Z,99230.99
2018-09-20T16:31:37.426Z,99227.09
2018-09-20T16:34:06.802Z,99219.58
2018-09-20T16:36:35.255Z,99219.49
2018-09-20T16:39:03.435Z,99209.66
2018-09-20T16:41:32.163Z,99207.72
2018-09-20T16:44:00.279Z,99203.63
2018-09-20T16:46:28.342Z,99196.31
2018-09-20T16:48:56.296Z,99198.58
2018-09-20T16:51:24.112Z,99191.78
2018-09-20T16:53:51.972Z,99195.87
2018-09-20T16:56:19.673Z,99193.09
2018-09-20T16:58:48.046Z,99193.98
2018-09-20T17:01:16.202Z,99188.14
2018-09-20T17:03:44.089Z,99188.91
2018-09-20T17:06:11.927Z,99191.70
2018-09-20T17:08:41.771Z,99191.25
2018-09-20T17:11:09.738Z,99188.27
2018-09-20T17:13:38.046Z,99185.58
2018-09-20T17:16:05.597Z,99184.52
2018-09-20T17:18:33.892Z,99178.17
2018-09-20T17:21:01.488Z,99176.13
2018-09-20T17:23:29.213Z,99181.10
2018-09-20T17:25:58.158Z,99181.92
2018-09-20T17:28:26.024Z,99176.11
2018-09-20T17:30:55.437Z,99168.02
2018-09-20T17:33:24.772Z,99169.70
2018-09-20T17:35:53.852Z,99172.67
2018-09-20T17:38:22.285Z,99170.47
2018-09-20T17:40:51.220Z,99174.98
2018-09-20T17:43:21.270Z,99171.52
2018-09-20T17:45:49.814Z,99175.06
2018-09-20T17:48:31.394Z,99173.36
2018-09-20T17:51:00.818Z,99172.21
2018-09-20T18:15:27.239Z,99142.98
2018-09-20T18:17:55.009Z,99142.15
2018-09-20T18:20:22.860Z,99139.16
2018-09-20T18:22:50.488Z,99140.95
2018-09-20T18:25:18.067Z,99134.58
2018-09-20T18:27:45.697Z,99133.09
2018-09-20T18:30:13.574Z,99134.98
2018-09-20T18:32:41.242Z,99129.36
2018-09-20T18:35:09.073Z,99127.88
2018-09-20T18:37:36.853Z,99127.20
2018-09-20T18:40:05.449Z,99129.30
2018-09-20T18:42:33.086Z,99122.40
2018-09-20T18:45:00.582Z,99118.98
2018-09-20T18:47:28.165Z,99130.17
2018-09-20T18:49:55.696Z,99129.24
2018-09-20T18:52:23.292Z,99130.94
2018-09-20T18:54:51.004Z,99132.09
2018-09-20T18:57:18.554Z,99126.09
2018-09-20T18:59:46.091Z,99121.36
2018-09-20T19:02:13.642Z,99119.80
2018-09-20T19:04:41.215Z,99122.34
2018-09-20T19:07:08.745Z,99122.75
2018-09-20T19:09:36.310Z,99122.69
2018-09-20T19:12:04.019Z,99120.61
2018-09-20T19:14:31.590Z,99122.69
2018-09-20T19:16:59.229Z,99120.76
2018-09-20T19:19:27.017Z,99119.14
2018-09-20T19:21:54.748Z,99110.03
2018-09-20T19:24:22.616Z,99107.02
2018-09-20T19:26:50.155Z,99109.29
2018-09-20T19:29:17.711Z,99100.89
2018-09-20T19:31:45.260Z,99097.64
2018-09-20T19:34:12.853Z,99101.11
2018-09-20T19:36:41.340Z,99095.72
2018-09-20T19:39:08.906Z,99096.27
2018-09-20T19:41:36.445Z,99095.13
2018-09-20T19:44:04.008Z,99094.05
2018-09-20T19:46:31.544Z,99094.34
2018-09-20T19:48:59.135Z,99098.78
2018-09-20T19:51:26.669Z,99086.23
2018-09-20T19:53:54.222Z,99089.61
2018-09-20T19:56:21.770Z,99083.55
2018-09-20T19:58:49.356Z,99084.16
2018-09-20T20:01:16.886Z,99085.78
2018-09-20T20:03:44.478Z,99087.11
2018-09-20T20:06:12.063Z,99076.16
2018-09-20T20:08:39.648Z,99077.51
2018-09-20T20:11:07.202Z,99080.21
2018-09-20T20:13:34.764Z,99078.41
2018-09-20T20:16:02.342Z,99068.79
2018-09-20T20:18:29.845Z,99068.07
2018-09-20T20:20:57.371Z,99066.67
2018-09-20T20:23:24.970Z,99058.70
2018-09-20T20:25:52.489Z,99063.86
2018-09-20T20:28:20.071Z,99052.72
2018-09-20T20:30:47.600Z,99049.54
2018-09-20T20:33:15.138Z,99044.29
2018-09-20T20:35:42.690Z,99039.06
2018-09-20T20:38:10.307Z,99033.92
2018-09-20T20:40:37.816Z,99028.63
2018-09-20T20:43:05.382Z,99034.28
2018-09-20T20:45:32.919Z,99022.59
2018-09-20T20:48:00.533Z,99030.12
2018-09-20T20:50:28.061Z,99024.38
2018-09-20T20:52:55.678Z,99027.62
2018-09-20T20:55:23.213Z,99021.79
2018-09-20T20:57:50.771Z,99017.73
2018-09-20T21:00:18.340Z,99019.39
2018-09-20T21:02:46.072Z,99017.42
2018-09-20T21:05:13.642Z,99021.94
2018-09-20T21:07:41.173Z,99015.98
2018-09-20T21:10:08.851Z,99005.13
2018-09-20T21:12:36.362Z,99008.84
2018-09-20T21:15:04.011Z,99000.01
2018-09-20T21:17:31.549Z,99010.20
2018-09-20T21:19:59.089Z,98995.96
2018-09-20T21:22:26.656Z,98998.17
2018-09-20T21:24:54.236Z,98997.38
2018-09-20T21:27:21.806Z,98991.42
2018-09-20T21:29:49.331Z,98982.86
2018-09-20T21:32:16.920Z,98976.75
2018-09-20T21:34:44.449Z,98970.89
2018-09-20T21:37:12.078Z,98980.09
2018-09-20T21:39:39.607Z,98968.07
2018-09-20T21:42:07.122Z,98968.19
2018-09-20T21:44:34.676Z,98968.61
2018-09-20T21:47:02.188Z,98958.61
2018-09-20T21:49:29.752Z,98956.44
2018-09-20T21:51:57.405Z,98953.58
2018-09-20T21:54:24.948Z,98950.15
2018-09-20T21:56:52.504Z,98944.84
2018-09-20T21:59:20.159Z,98949.98
2018-09-20T22:01:47.673Z,98952.30
2018-09-20T22:04:15.242Z,98936.77
2018-09-20T22:06:42.811Z,98933.27
2018-09-20T22:09:10.340Z,98929.12
2018-09-20T22:11:37.884Z,98920.34
2018-09-20T22:14:05.453Z,98918.44
2018-09-20T22:16:33.036Z,98919.99
2018-09-20T22:19:00.566Z,98919.25
2018-09-20T22:21:32.787Z,98920.15
2018-09-20T22:24:00.305Z,98918.23
2018-09-20T22:26:27.868Z,98915.08
2018-09-20T22:28:55.386Z,98901.05
2018-09-20T22:31:24.088Z,98902.61
2018-09-20T22:33:51.656Z,98903.22
2018-09-20T22:36:19.208Z,98893.27
2018-09-20T22:38:49.360Z,98889.76
2018-09-20T22:41:16.942Z,98887.66
2018-09-20T22:43:44.529Z,98882.88
2018-09-20T22:46:12.050Z,98879.64
2018-09-20T22:48:39.602Z,98880.03
2018-09-20T22:51:07.169Z,98870.86
2018-09-20T22:53:34.704Z,98870.06
2018-09-20T22:56:02.512Z,98857.33
2018-09-20T22:58:30.046Z,98858.69
2018-09-20T23:00:57.653Z,98852.52
2018-09-20T23:03:25.185Z,98848.60
2018-09-20T23:05:52.721Z,98849.03
2018-09-20T23:08:20.287Z,98850.61
2018-09-20T23:10:47.810Z,98846.73
2018-09-20T23:13:15.358Z,98840.05
2018-09-20T23:15:42.877Z,98840.48
2018-09-20T23:18:10.470Z,98839.24
2018-09-20T23:20:37.983Z,98831.45
2018-09-20T23:23:05.560Z,98835.95
2018-09-20T23:25:33.096Z,98831.86
2018-09-20T23:28:00.641Z,98829.27
2018-09-20T23:30:29.334Z,98826.99
2018-09-20T23:32:56.843Z,98821.47
2018-09-20T23:35:24.550Z,98817.08
2018-09-20T23:37:53.245Z,98818.08
2018-09-20T23:40:20.830Z,98815.90
2018-09-20T23:42:48.450Z,98812.35
2018-09-20T23:45:16.221Z,98812.80
2018-09-20T23:47:43.796Z,98815.19
2018-09-20T23:50:11.443Z,98815.59
2018-09-20T23:52:39.289Z,98809.04
2018-09-20T23:55:09.143Z,98807.17
2018-09-20T23:57:37.777Z,98810.04
